Time;durP1;ratioP1;P1;durP2;ratioP2;P2;SDS_P1;SDS_P2;PMS_P1;PMS_P2;Temp;Humidity;BMP_temperature;BMP_pressure;BME280_temperature;BME280_humidity;BME280_pressure;Samples;Min_cycle;Max_cycle;Signal;HPM_P1;HPM_P2
2021/08/16 00:01:06;;;;;;;18.75;5.97;;;;;;;-145.01;100.00;64805.59;4994767;28;20069;-60
2021/08/16 00:03:32;;;;;;;12.95;6.40;;;;;;;-145.01;100.00;64805.59;4993904;28;20038;-60
2021/08/16 00:05:57;;;;;;;17.33;6.22;;;;;;;-145.01;100.00;64805.59;4994524;28;20400;-61
2021/08/16 00:08:23;;;;;;;17.50;5.68;;;;;;;-145.01;100.00;64805.59;4993817;28;20054;-61
2021/08/16 00:10:48;;;;;;;15.02;6.40;;;;;;;-145.01;100.00;64805.59;4994658;28;20412;-61
2021/08/16 00:13:13;;;;;;;16.77;6.30;;;;;;;-145.01;100.00;64805.59;4994991;28;20026;-61
2021/08/16 00:15:39;;;;;;;15.18;5.60;;;;;;;-145.01;100.00;64805.59;4994553;28;20034;-61
2021/08/16 00:18:04;;;;;;;16.45;6.13;;;;;;;-145.01;100.00;64805.59;4993658;28;20069;-61
2021/08/16 00:20:30;;;;;;;17.75;6.90;;;;;;;-145.01;100.00;64805.59;4994223;28;20506;-61
2021/08/16 00:22:55;;;;;;;19.38;6.05;;;;;;;-145.01;100.00;64805.59;4993460;28;20062;-61
2021/08/16 00:25:21;;;;;;;13.25;6.10;;;;;;;-145.01;100.00;64805.59;4994371;28;20121;-60
2021/08/16 00:27:46;;;;;;;21.05;6.45;;;;;;;-145.01;100.00;64805.59;4994636;28;20029;-60
2021/08/16 00:30:15;;;;;;;11.80;5.88;;;;;;;-145.01;100.00;64805.59;4994716;28;20026;-60
2021/08/16 00:32:40;;;;;;;12.55;5.85;;;;;;;-145.01;100.00;64805.59;4993415;28;20518;-60
2021/08/16 00:35:06;;;;;;;12.88;6.18;;;;;;;-145.01;100.00;64805.59;4993952;28;20034;-60
2021/08/16 00:37:31;;;;;;;18.70;6.05;;;;;;;-145.01;100.00;64805.59;4994459;28;20042;-60
2021/08/16 00:39:57;;;;;;;13.70;6.10;;;;;;;-145.01;100.00;64805.59;4994365;28;20166;-60
2021/08/16 00:42:22;;;;;;;14.57;6.03;;;;;;;-145.01;100.00;64805.59;4993988;28;20091;-60
2021/08/16 00:44:48;;;;;;;13.77;5.75;;;;;;;-145.01;100.00;64805.59;4994500;28;20078;-60
2021/08/16 00:47:14;;;;;;;16.75;5.65;;;;;;;-145.01;100.00;64805.59;4993791;28;20473;-60
2021/08/16 00:49:40;;;;;;;13.13;5.90;;;;;;;-145.01;100.00;64805.59;4992954;28;20030;-60
2021/08/16 00:52:06;;;;;;;12.75;5.28;;;;;;;-145.01;100.00;64805.59;4993817;28;20424;-60
2021/08/16 00:54:31;;;;;;;12.93;6.00;;;;;;;-145.01;100.00;64805.59;4992777;28;20080;-60
2021/08/16 00:56:58;;;;;;;12.82;6.45;;;;;;;-145.01;100.00;64805.59;4992435;28;20096;-60
2021/08/16 00:59:24;;;;;;;14.70;6.40;;;;;;;-145.01;100.00;64805.59;4992791;28;20023;-60
2021/08/16 01:01:49;;;;;;;10.77;6.28;;;;;;;-145.01;100.00;64805.59;4975884;28;20374;-60
2021/08/16 01:04:15;;;;;;;15.77;5.65;;;;;;;-145.01;100.00;64805.59;4992222;28;20022;-60
2021/08/16 01:06:41;;;;;;;15.20;6.13;;;;;;;-145.01;100.00;64805.59;4992310;28;20468;-60
2021/08/16 01:09:06;;;;;;;12.80;5.97;;;;;;;-145.01;100.00;64805.59;4992765;28;20061;-60
2021/08/16 01:11:32;;;;;;;11.30;5.20;;;;;;;-145.01;100.00;64805.59;4993496;28;20038;-60
2021/08/16 01:13:57;;;;;;;12.93;5.40;;;;;;;-145.01;100.00;64805.59;4993866;28;20092;-60
2021/08/16 01:16:22;;;;;;;14.27;5.22;;;;;;;-145.01;100.00;64805.59;4993483;28;20400;-60
2021/08/16 01:18:48;;;;;;;22.13;5.68;;;;;;;-145.01;100.00;64805.59;4993701;28;20023;-60
2021/08/16 01:21:15;;;;;;;12.40;5.35;;;;;;;-145.01;100.00;64805.59;4993644;28;20056;-60
2021/08/16 01:23:41;;;;;;;11.40;5.03;;;;;;;-145.01;100.00;64805.59;4993887;28;20033;-60
2021/08/16 01:26:07;;;;;;;10.25;5.10;;;;;;;-145.01;100.00;64805.59;4993408;28;20397;-60
2021/08/16 01:28:32;;;;;;;10.80;5.03;;;;;;;-145.01;100.00;64805.59;4993792;28;20030;-60
2021/08/16 01:31:02;;;;;;;13.02;5.32;;;;;;;-145.01;100.00;64805.59;4993272;28;20042;-60
2021/08/16 01:33:28;;;;;;;24.88;5.85;;;;;;;-145.01;100.00;64805.59;4993646;28;20053;-60
2021/08/16 01:35:53;;;;;;;11.32;5.60;;;;;;;-145.01;100.00;64805.59;4993060;28;20073;-60
2021/08/16 01:38:19;;;;;;;15.15;5.88;;;;;;;-145.01;100.00;64805.59;4993600;28;20033;-60
2021/08/16 01:40:45;;;;;;;11.80;5.68;;;;;;;-145.01;100.00;64805.59;4993268;28;20038;-60
2021/08/16 01:43:11;;;;;;;14.90;6.35;;;;;;;-145.01;100.00;64805.59;4993565;28;20026;-59
2021/08/16 01:45:36;;;;;;;15.68;5.85;;;;;;;-145.01;100.00;64805.59;4993029;28;20039;-60
2021/08/16 01:48:02;;;;;;;18.05;6.15;;;;;;;-145.01;100.00;64805.59;4992231;28;20030;-60
2021/08/16 01:50:27;;;;;;;12.88;5.90;;;;;;;-145.01;100.00;64805.59;4991918;28;20053;-60
2021/08/16 01:52:53;;;;;;;9.98;5.40;;;;;;;-145.01;100.00;64805.59;4993316;28;20510;-60
2021/08/16 01:55:18;;;;;;;10.73;4.63;;;;;;;-145.01;100.00;64805.59;4992887;28;20026;-60
2021/08/16 01:57:44;;;;;;;10.63;4.57;;;;;;;-145.01;100.00;64805.59;4993543;28;20014;-60
2021/08/16 02:00:10;;;;;;;13.15;5.25;;;;;;;-145.01;100.00;64805.59;4993028;28;20038;-60
2021/08/16 02:02:35;;;;;;;10.88;4.32;;;;;;;-145.01;100.00;64805.59;4993181;28;20022;-60
2021/08/16 02:05:01;;;;;;;7.45;4.15;;;;;;;-145.01;100.00;64805.59;4992802;28;20084;-61
2021/08/16 02:07:26;;;;;;;8.80;3.90;;;;;;;-145.01;100.00;64805.59;4993087;28;20079;-60
2021/08/16 02:09:51;;;;;;;7.47;4.20;;;;;;;-145.01;100.00;64805.59;4992845;28;20042;-60
2021/08/16 02:12:17;;;;;;;7.60;3.78;;;;;;;-145.01;100.00;64805.59;4992719;28;20046;-60
2021/08/16 02:14:42;;;;;;;8.80;3.40;;;;;;;-145.01;100.00;64805.59;4993225;28;20029;-60
2021/08/16 02:17:08;;;;;;;11.18;3.25;;;;;;;-145.01;100.00;64805.59;5028163;28;20400;-60
2021/08/16 02:19:33;;;;;;;9.27;2.90;;;;;;;-145.01;100.00;64805.59;4996943;28;20030;-60
2021/08/16 02:21:59;;;;;;;10.13;2.60;;;;;;;-145.01;100.00;64805.59;4996575;28;20038;-60
2021/08/16 02:24:24;;;;;;;8.75;2.83;;;;;;;-145.01;100.00;64805.59;4996990;28;20026;-60
2021/08/16 02:26:49;;;;;;;9.93;2.92;;;;;;;-145.01;100.00;64805.59;4996608;28;20045;-59
2021/08/16 02:29:15;;;;;;;8.80;2.60;;;;;;;-145.01;100.00;64805.59;4997045;28;20026;-60
2021/08/16 02:31:40;;;;;;;7.45;2.60;;;;;;;-145.01;100.00;64805.59;4996377;28;20042;-59
2021/08/16 02:34:06;;;;;;;9.45;2.47;;;;;;;-145.01;100.00;64805.59;4996732;28;20031;-59
2021/08/16 02:36:31;;;;;;;10.43;2.67;;;;;;;-145.01;100.00;64805.59;4996459;28;20034;-60
2021/08/16 02:38:57;;;;;;;7.80;2.53;;;;;;;-145.01;100.00;64805.59;4996743;28;20022;-60
2021/08/16 02:41:22;;;;;;;8.85;2.60;;;;;;;-145.01;100.00;64805.59;4994986;28;20046;-60
2021/08/16 02:43:47;;;;;;;8.30;2.38;;;;;;;-145.01;100.00;64805.59;4996668;28;20026;-60
2021/08/16 02:46:13;;;;;;;6.93;2.63;;;;;;;-145.01;100.00;64805.59;4996056;28;20036;-60
2021/08/16 02:48:38;;;;;;;6.40;2.58;;;;;;;-145.01;100.00;64805.59;4996819;28;20030;-60
2021/08/16 02:51:04;;;;;;;11.63;3.30;;;;;;;-145.01;100.00;64805.59;4978527;28;20053;-60
2021/08/16 02:53:29;;;;;;;7.72;2.70;;;;;;;-145.01;100.00;64805.59;4995106;28;20026;-60
2021/08/16 02:55:54;;;;;;;7.15;2.72;;;;;;;-145.01;100.00;64805.59;4995634;28;20425;-60
2021/08/16 02:58:20;;;;;;;7.75;2.40;;;;;;;-145.01;100.00;64805.59;4996656;28;20026;-60
2021/08/16 03:00:45;;;;;;;8.68;2.80;;;;;;;-145.01;100.00;64805.59;4995746;28;20046;-60
2021/08/16 03:03:11;;;;;;;8.15;2.85;;;;;;;-145.01;100.00;64805.59;4996292;28;20025;-60
2021/08/16 03:05:36;;;;;;;8.75;2.67;;;;;;;-145.01;100.00;64805.59;4995969;28;20042;-60
2021/08/16 03:08:01;;;;;;;9.35;2.40;;;;;;;-145.01;100.00;64805.59;4995842;28;20412;-60
2021/08/16 03:10:27;;;;;;;7.47;2.97;;;;;;;-145.01;100.00;64805.59;4994779;28;20049;-60
2021/08/16 03:12:52;;;;;;;8.77;2.92;;;;;;;-145.01;100.00;64805.59;4994931;28;20057;-60
2021/08/16 03:15:18;;;;;;;7.35;2.55;;;;;;;-145.01;100.00;64805.59;4994474;28;20061;-60
2021/08/16 03:17:43;;;;;;;10.60;3.20;;;;;;;-145.01;100.00;64805.59;4994786;28;20026;-60
2021/08/16 03:20:09;;;;;;;7.82;2.83;;;;;;;-145.01;100.00;64805.59;4994320;28;20030;-60
2021/08/16 03:22:35;;;;;;;7.22;2.85;;;;;;;-145.01;100.00;64805.59;4994718;28;20022;-60
2021/08/16 03:25:00;;;;;;;9.63;3.35;;;;;;;-145.01;100.00;64805.59;4994431;28;20022;-61
2021/08/16 03:27:26;;;;;;;7.65;2.55;;;;;;;-145.01;100.00;64805.59;4994261;28;20042;-60
2021/08/16 03:29:51;;;;;;;6.72;2.60;;;;;;;-145.01;100.00;64805.59;4994629;28;20481;-60
2021/08/16 03:32:16;;;;;;;7.97;2.75;;;;;;;-145.01;100.00;64805.59;4994261;28;20046;-60
2021/08/16 03:34:42;;;;;;;9.93;2.90;;;;;;;-145.01;100.00;64805.59;4994607;28;20030;-60
2021/08/16 03:37:08;;;;;;;13.32;2.88;;;;;;;-145.01;100.00;64805.59;4994105;28;20030;-60
2021/08/16 03:39:33;;;;;;;8.60;2.40;;;;;;;-145.01;100.00;64805.59;4994486;28;20026;-60
2021/08/16 03:41:58;;;;;;;10.55;2.78;;;;;;;-145.01;100.00;64805.59;4992679;28;20038;-60
2021/08/16 03:44:24;;;;;;;15.65;2.80;;;;;;;-145.01;100.00;64805.59;4992788;28;20027;-60
2021/08/16 03:46:49;;;;;;;9.95;2.75;;;;;;;-145.01;100.00;64805.59;4993944;28;20038;-60
2021/08/16 03:49:15;;;;;;;14.95;2.80;;;;;;;-145.01;100.00;64805.59;4994323;28;20041;-60
2021/08/16 03:51:40;;;;;;;11.05;3.08;;;;;;;-145.01;100.00;64805.59;4994047;28;20034;-60
2021/08/16 03:54:06;;;;;;;10.07;3.40;;;;;;;-145.01;100.00;64805.59;4994438;28;20026;-60
2021/08/16 03:56:31;;;;;;;10.45;2.88;;;;;;;-145.01;100.00;64805.59;5025325;28;20042;-60
2021/08/16 03:58:56;;;;;;;8.85;2.90;;;;;;;-145.01;100.00;64805.59;4993928;28;20038;-60
2021/08/16 04:01:22;;;;;;;16.88;3.22;;;;;;;-145.01;100.00;64805.59;4994058;28;20405;-60
2021/08/16 04:03:48;;;;;;;11.40;2.92;;;;;;;-145.01;100.00;64805.59;4994231;28;20030;-60
2021/08/16 04:06:13;;;;;;;6.55;2.63;;;;;;;-145.01;100.00;64805.59;4993612;28;20405;-60
2021/08/16 04:08:39;;;;;;;7.40;2.67;;;;;;;-145.01;100.00;64805.59;4953804;28;1142341;-60
2021/08/16 04:11:06;;;;;;;9.15;3.08;;;;;;;-145.01;100.00;64805.59;4993774;28;20042;-60
2021/08/16 04:13:34;;;;;;;11.25;3.22;;;;;;;-145.01;100.00;64805.59;4995301;28;20034;-60
2021/08/16 04:16:00;;;;;;;8.23;2.88;;;;;;;-145.01;100.00;64805.59;4995287;28;20037;-59
2021/08/16 04:18:25;;;;;;;8.85;2.53;;;;;;;-145.01;100.00;64805.59;4994331;28;20022;-60
2021/08/16 04:20:51;;;;;;;11.43;2.92;;;;;;;-145.01;100.00;64805.59;4995081;28;20058;-61
2021/08/16 04:23:16;;;;;;;6.40;2.40;;;;;;;-145.01;100.00;64805.59;4995152;28;20045;-59
2021/08/16 04:25:42;;;;;;;6.13;2.50;;;;;;;-145.01;100.00;64805.59;4994482;28;20046;-59
2021/08/16 04:28:07;;;;;;;8.88;2.60;;;;;;;-145.01;100.00;64805.59;4994814;28;20034;-59
2021/08/16 04:30:32;;;;;;;8.43;2.63;;;;;;;-145.01;100.00;64805.59;4994318;28;20042;-59
2021/08/16 04:32:58;;;;;;;6.47;2.30;;;;;;;-145.01;100.00;64805.59;4994884;28;20428;-59
2021/08/16 04:35:23;;;;;;;4.18;2.03;;;;;;;-145.01;100.00;64805.59;4994220;28;20093;-60
2021/08/16 04:37:49;;;;;;;8.30;2.78;;;;;;;-145.01;100.00;64805.59;4993837;28;20081;-59
2021/08/16 04:40:14;;;;;;;6.40;2.13;;;;;;;-145.01;100.00;64805.59;4994225;28;20030;-59
2021/08/16 04:42:40;;;;;;;9.45;2.25;;;;;;;-145.01;100.00;64805.59;4993136;28;20044;-59
2021/08/16 04:45:07;;;;;;;4.72;1.83;;;;;;;-145.01;100.00;64805.59;4994355;28;20030;-59
2021/08/16 04:47:32;;;;;;;6.88;2.20;;;;;;;-145.01;100.00;64805.59;4994483;28;20065;-59
2021/08/16 04:49:57;;;;;;;5.38;1.73;;;;;;;-145.01;100.00;64805.59;4994468;28;20432;-59
2021/08/16 04:52:24;;;;;;;5.05;1.95;;;;;;;-145.01;100.00;64805.59;4993978;28;20457;-59
2021/08/16 04:54:49;;;;;;;8.60;2.45;;;;;;;-145.01;100.00;64805.59;4994300;28;20113;-59
2021/08/16 04:57:14;;;;;;;10.88;2.28;;;;;;;-145.01;100.00;64805.59;4993502;28;20038;-61
2021/08/16 04:59:40;;;;;;;6.93;2.00;;;;;;;-145.01;100.00;64805.59;4993082;28;20026;-59
2021/08/16 05:02:05;;;;;;;4.90;2.00;;;;;;;-145.01;100.00;64805.59;4992773;28;20042;-59
2021/08/16 05:04:31;;;;;;;4.85;1.80;;;;;;;-145.01;100.00;64805.59;4994201;28;20041;-59
2021/08/16 05:06:57;;;;;;;7.57;2.30;;;;;;;-145.01;100.00;64805.59;4992218;28;20039;-60
2021/08/16 05:09:22;;;;;;;7.70;2.25;;;;;;;-145.01;100.00;64805.59;4993765;28;20116;-59
2021/08/16 05:11:47;;;;;;;12.10;2.38;;;;;;;-145.01;100.00;64805.59;4993359;28;20039;-59
2021/08/16 05:14:13;;;;;;;4.93;2.05;;;;;;;-145.01;100.00;64805.59;4993880;28;20097;-59
2021/08/16 05:16:38;;;;;;;6.95;2.03;;;;;;;-145.01;100.00;64805.59;4993639;28;20045;-59
2021/08/16 05:19:04;;;;;;;7.72;2.47;;;;;;;-145.01;100.00;64805.59;4993756;28;20030;-59
2021/08/16 05:21:30;;;;;;;7.57;2.10;;;;;;;-145.01;100.00;64805.59;4992089;28;20097;-59
2021/08/16 05:23:55;;;;;;;4.43;2.15;;;;;;;-145.01;100.00;64805.59;4993764;28;20026;-59
2021/08/16 05:26:21;;;;;;;6.80;2.55;;;;;;;-145.01;100.00;64805.59;4991925;28;20089;-59
2021/08/16 05:28:46;;;;;;;6.10;2.00;;;;;;;-145.01;100.00;64805.59;4993950;28;20026;-59
2021/08/16 05:31:12;;;;;;;4.85;2.13;;;;;;;-145.01;100.00;64805.59;4993271;28;20097;-59
2021/08/16 05:33:37;;;;;;;8.02;2.30;;;;;;;-145.01;100.00;64805.59;4993732;28;20030;-59
2021/08/16 05:36:03;;;;;;;7.78;2.08;;;;;;;-145.01;100.00;64805.59;4993539;28;20042;-59
2021/08/16 05:38:28;;;;;;;5.85;2.20;;;;;;;-145.01;100.00;64805.59;4993882;28;20033;-62
2021/08/16 05:40:54;;;;;;;5.90;2.08;;;;;;;-145.01;100.00;64805.59;4993276;28;20046;-60
2021/08/16 05:43:19;;;;;;;11.13;2.60;;;;;;;-145.01;100.00;64805.59;4993679;28;20053;-59
2021/08/16 05:45:45;;;;;;;6.30;2.03;;;;;;;-145.01;100.00;64805.59;4993344;28;20081;-60
2021/08/16 05:48:10;;;;;;;9.07;2.42;;;;;;;-145.01;100.00;64805.59;4976010;28;20393;-59
2021/08/16 05:50:35;;;;;;;8.18;2.33;;;;;;;-145.01;100.00;64805.59;4993032;28;20038;-60
2021/08/16 05:53:01;;;;;;;9.90;2.35;;;;;;;-145.01;100.00;64805.59;4993402;28;20077;-60
2021/08/16 05:55:26;;;;;;;6.20;2.42;;;;;;;-145.01;100.00;64805.59;4992798;28;20034;-60
2021/08/16 05:57:52;;;;;;;9.95;2.42;;;;;;;-145.01;100.00;64805.59;4993139;28;20121;-60
2021/08/16 06:00:20;;;;;;;8.82;2.55;;;;;;;-145.01;100.00;64805.59;4993087;28;20030;-60
2021/08/16 06:02:46;;;;;;;8.98;2.50;;;;;;;-145.01;100.00;64805.59;4992188;28;20048;-61
2021/08/16 06:05:11;;;;;;;5.72;2.17;;;;;;;-145.01;100.00;64805.59;4992919;28;20457;-60
2021/08/16 06:07:37;;;;;;;10.98;2.65;;;;;;;-145.01;100.00;64805.59;4993241;28;20436;-60
2021/08/16 06:10:05;;;;;;;7.32;2.55;;;;;;;-145.01;100.00;64805.59;4992629;28;20062;-60
2021/08/16 06:12:31;;;;;;;11.45;2.80;;;;;;;-145.01;100.00;64805.59;4993190;28;20377;-60
2021/08/16 06:14:57;;;;;;;10.52;2.42;;;;;;;-145.01;100.00;64805.59;4993109;28;20022;-60
2021/08/16 06:17:22;;;;;;;8.93;2.45;;;;;;;-145.01;100.00;64805.59;4992780;28;20034;-60
2021/08/16 06:19:47;;;;;;;13.52;2.88;;;;;;;-145.01;100.00;64805.59;4993077;28;20465;-60
2021/08/16 06:22:13;;;;;;;11.73;2.55;;;;;;;-145.01;100.00;64805.59;4992835;28;20088;-60
2021/08/16 06:24:38;;;;;;;6.13;2.17;;;;;;;-145.01;100.00;64805.59;4993097;28;20026;-60
2021/08/16 06:27:04;;;;;;;14.40;2.90;;;;;;;-145.01;100.00;64805.59;4992552;28;20034;-60
2021/08/16 06:29:29;;;;;;;5.68;2.35;;;;;;;-145.01;100.00;64805.59;4993146;28;20030;-60
2021/08/16 06:31:55;;;;;;;8.57;2.45;;;;;;;-145.01;100.00;64805.59;4991408;28;20101;-61
2021/08/16 06:34:22;;;;;;;8.43;2.70;;;;;;;-145.01;100.00;64805.59;4993038;28;20023;-60
2021/08/16 06:36:56;;;;;;;5.65;2.10;;;;;;;-145.01;100.00;64805.59;4992679;28;20138;-61
2021/08/16 06:39:22;;;;;;;6.10;2.42;;;;;;;-145.01;100.00;64805.59;4992889;28;20030;-60
2021/08/16 06:41:49;;;;;;;7.25;2.45;;;;;;;-145.01;100.00;64805.59;4992761;28;20400;-61
2021/08/16 06:44:16;;;;;;;7.97;2.55;;;;;;;-145.01;100.00;64805.59;4993093;28;20019;-61
2021/08/16 06:46:42;;;;;;;8.23;2.97;;;;;;;-145.01;100.00;64805.59;4992064;28;20062;-61
2021/08/16 06:49:07;;;;;;;7.18;2.40;;;;;;;-145.01;100.00;64805.59;4991829;28;20037;-62
2021/08/16 06:51:33;;;;;;;6.22;2.20;;;;;;;-145.01;100.00;64805.59;4992738;28;20081;-61
2021/08/16 06:53:58;;;;;;;7.70;2.50;;;;;;;-145.01;100.00;64805.59;4992812;28;20107;-61
2021/08/16 06:56:24;;;;;;;4.40;2.03;;;;;;;-145.01;100.00;64805.59;4992666;28;20054;-61
2021/08/16 06:58:49;;;;;;;6.90;2.28;;;;;;;-145.01;100.00;64805.59;4992850;28;20097;-59
2021/08/16 07:01:25;;;;;;;8.73;2.38;;;;;;;-145.01;100.00;64805.59;4992843;28;20046;-59
2021/08/16 07:03:52;;;;;;;8.93;2.65;;;;;;;-145.01;100.00;64805.59;4996437;28;20026;-60
2021/08/16 07:06:17;;;;;;;10.00;2.60;;;;;;;-145.01;100.00;64805.59;4994692;28;20081;-59
2021/08/16 07:08:42;;;;;;;8.80;2.50;;;;;;;-145.01;100.00;64805.59;4994870;28;20050;-59
2021/08/16 07:11:08;;;;;;;8.30;2.30;;;;;;;-145.01;100.00;64805.59;4994479;28;20432;-59
2021/08/16 07:13:33;;;;;;;6.22;2.30;;;;;;;-145.01;100.00;64805.59;4996359;28;20025;-60
2021/08/16 07:15:59;;;;;;;7.72;2.25;;;;;;;-145.01;100.00;64805.59;4995821;28;20042;-61
2021/08/16 07:18:24;;;;;;;8.15;2.50;;;;;;;-145.01;100.00;64805.59;4996393;28;20033;-61
2021/08/16 07:20:50;;;;;;;7.07;2.25;;;;;;;-145.01;100.00;64805.59;4994825;28;20053;-60
2021/08/16 07:23:15;;;;;;;5.38;2.30;;;;;;;-145.01;100.00;64805.59;4996070;28;20030;-60
2021/08/16 07:25:41;;;;;;;8.25;2.65;;;;;;;-145.01;100.00;64805.59;4995830;28;20042;-59
2021/08/16 07:28:06;;;;;;;9.20;2.50;;;;;;;-145.01;100.00;64805.59;4995947;28;20064;-59
2021/08/16 07:30:32;;;;;;;8.40;2.38;;;;;;;-145.01;100.00;64805.59;4995423;28;20069;-61
2021/08/16 07:32:57;;;;;;;7.28;2.47;;;;;;;-145.01;100.00;64805.59;4994514;28;20025;-60
2021/08/16 07:35:22;;;;;;;7.93;2.75;;;;;;;-145.01;100.00;64805.59;4995377;28;20042;-59
2021/08/16 07:37:48;;;;;;;7.00;2.55;;;;;;;-145.01;100.00;64805.59;4995581;28;20022;-59
2021/08/16 07:40:13;;;;;;;9.07;2.67;;;;;;;-145.01;100.00;64805.59;4995336;28;20034;-61
2021/08/16 07:42:40;;;;;;;7.70;2.30;;;;;;;-145.01;100.00;64805.59;4995970;28;20456;-59
2021/08/16 07:45:06;;;;;;;6.40;2.53;;;;;;;-145.01;100.00;64805.59;4995506;28;20030;-59
2021/08/16 07:47:32;;;;;;;6.72;2.60;;;;;;;-145.01;100.00;64805.59;4995576;28;20022;-59
2021/08/16 07:49:57;;;;;;;8.77;2.38;;;;;;;-145.01;100.00;64805.59;4995660;28;20030;-61
2021/08/16 07:52:23;;;;;;;9.35;2.33;;;;;;;-145.01;100.00;64805.59;4995119;28;20031;-61
2021/08/16 07:54:48;;;;;;;13.00;2.60;;;;;;;-145.01;100.00;64805.59;4995382;28;20050;-61
2021/08/16 07:57:13;;;;;;;6.55;2.33;;;;;;;-145.01;100.00;64805.59;4993943;28;20059;-62
2021/08/16 07:59:39;;;;;;;9.63;2.30;;;;;;;-145.01;100.00;64805.59;4995412;28;20022;-61
2021/08/16 08:02:04;;;;;;;6.80;2.33;;;;;;;-145.01;100.00;64805.59;4994962;28;20085;-59
2021/08/16 08:04:30;;;;;;;14.88;2.58;;;;;;;-145.01;100.00;64805.59;4995244;28;20381;-59
2021/08/16 08:06:55;;;;;;;9.88;2.85;;;;;;;-145.01;100.00;64805.59;4994704;28;20366;-61
2021/08/16 08:09:21;;;;;;;8.35;2.50;;;;;;;-145.01;100.00;64805.59;4994880;28;20050;-59
2021/08/16 08:11:46;;;;;;;9.18;2.30;;;;;;;-145.01;100.00;64805.59;4994542;28;20042;-59
2021/08/16 08:14:12;;;;;;;7.80;2.05;;;;;;;-145.01;100.00;64805.59;4993971;28;20022;-59
2021/08/16 08:16:37;;;;;;;17.33;2.75;;;;;;;-145.01;100.00;64805.59;4994646;28;20374;-59
2021/08/16 08:19:03;;;;;;;14.40;2.90;;;;;;;-145.01;100.00;64805.59;4994905;28;20484;-59
2021/08/16 08:21:28;;;;;;;12.13;2.92;;;;;;;-145.01;100.00;64805.59;4994468;28;20136;-61
2021/08/16 08:23:54;;;;;;;9.68;3.00;;;;;;;-145.01;100.00;64805.59;4994943;28;20385;-59
2021/08/16 08:26:19;;;;;;;7.85;2.83;;;;;;;-145.01;100.00;64805.59;4993268;28;20157;-61
2021/08/16 08:28:44;;;;;;;10.98;3.45;;;;;;;-145.01;100.00;64805.59;4993654;28;20026;-59
2021/08/16 08:31:10;;;;;;;8.88;2.60;;;;;;;-145.01;100.00;64805.59;4993119;28;20042;-60
2021/08/16 08:33:37;;;;;;;7.72;2.65;;;;;;;-145.01;100.00;64805.59;4994636;28;20038;-59
2021/08/16 08:36:03;;;;;;;10.10;2.67;;;;;;;-145.01;100.00;64805.59;4993027;28;20122;-59
2021/08/16 08:38:28;;;;;;;10.02;2.85;;;;;;;-145.01;100.00;64805.59;4994710;28;20054;-59
2021/08/16 08:40:55;;;;;;;11.93;2.97;;;;;;;-145.01;100.00;64805.59;4994220;28;20038;-59
2021/08/16 08:43:20;;;;;;;10.88;2.70;;;;;;;-145.01;100.00;64805.59;4993414;28;20026;-59
2021/08/16 08:45:46;;;;;;;6.82;2.95;;;;;;;-145.01;100.00;64805.59;4994086;28;20485;-60
2021/08/16 08:48:12;;;;;;;9.88;3.20;;;;;;;-145.01;100.00;64805.59;4994349;28;20037;-59
2021/08/16 08:50:39;;;;;;;10.55;2.70;;;;;;;-145.01;100.00;64805.59;4993885;28;20145;-59
2021/08/16 08:53:04;;;;;;;10.35;3.30;;;;;;;-145.01;100.00;64805.59;4994376;28;20034;-60
2021/08/16 08:55:30;;;;;;;10.00;3.40;;;;;;;-145.01;100.00;64805.59;4993792;28;20393;-59
2021/08/16 08:57:58;;;;;;;11.38;2.92;;;;;;;-145.01;100.00;64805.59;4994213;28;20130;-62
2021/08/16 09:00:23;;;;;;;9.80;2.90;;;;;;;-145.01;100.00;64805.59;4993594;28;20096;-59
2021/08/16 09:02:56;;;;;;;10.50;2.83;;;;;;;-145.01;100.00;64805.59;4994040;28;20027;-59
2021/08/16 09:05:21;;;;;;;8.63;2.63;;;;;;;-145.01;100.00;64805.59;4992545;28;20057;-60
2021/08/16 09:07:47;;;;;;;10.93;2.90;;;;;;;-145.01;100.00;64805.59;4993841;28;20033;-59
2021/08/16 09:10:13;;;;;;;6.43;2.63;;;;;;;-145.01;100.00;64805.59;4991940;28;20058;-60
2021/08/16 09:12:39;;;;;;;7.00;2.30;;;;;;;-145.01;100.00;64805.59;4994147;28;20084;-59
2021/08/16 09:15:18;;;;;;;12.00;3.08;;;;;;;-145.01;100.00;64805.59;4994040;28;20109;-60
2021/08/16 09:17:43;;;;;;;9.77;3.03;;;;;;;-145.01;100.00;64805.59;4993038;28;20541;-59
2021/08/16 09:20:22;;;;;;;16.25;3.00;;;;;;;-145.01;100.00;64805.59;4993021;28;20585;-60
2021/08/16 09:23:01;;;;;;;11.13;2.83;;;;;;;-145.01;100.00;64805.59;4993777;28;20073;-59
2021/08/16 09:25:30;;;;;;;10.40;3.15;;;;;;;-145.01;100.00;64805.59;4993024;28;20042;-59
2021/08/16 09:27:55;;;;;;;8.43;3.10;;;;;;;-145.01;100.00;64805.59;4993848;28;20420;-59
2021/08/16 09:30:38;;;;;;;8.95;3.00;;;;;;;-145.01;100.00;64805.59;4992415;28;20054;-59
2021/08/16 09:33:14;;;;;;;11.45;3.35;;;;;;;-145.01;100.00;64805.59;4993830;28;20377;-59
2021/08/16 09:35:49;;;;;;;12.80;3.30;;;;;;;-145.01;100.00;64805.59;4992954;28;20034;-59
2021/08/16 09:38:14;;;;;;;14.60;3.75;;;;;;;-145.01;100.00;64805.59;4992136;28;20121;-59
2021/08/16 09:40:40;;;;;;;9.48;2.78;;;;;;;-145.01;100.00;64805.59;4992999;28;20037;-59
2021/08/16 09:43:05;;;;;;;16.48;3.55;;;;;;;-145.01;100.00;64805.59;4993733;28;20041;-60
2021/08/16 09:45:32;;;;;;;14.55;3.25;;;;;;;-145.01;100.00;64805.59;4993144;28;20049;-59
2021/08/16 09:48:02;;;;;;;9.60;3.22;;;;;;;-145.01;100.00;64805.59;4993524;28;20033;-59
2021/08/16 09:50:41;;;;;;;10.53;3.40;;;;;;;-145.01;100.00;64805.59;4991925;28;20042;-59
2021/08/16 09:53:11;;;;;;;12.02;3.17;;;;;;;-145.01;100.00;64805.59;4993291;28;20358;-59
2021/08/16 09:55:39;;;;;;;8.35;3.15;;;;;;;-145.01;100.00;64805.59;4993227;28;20393;-59
2021/08/16 09:58:06;;;;;;;10.15;2.95;;;;;;;-145.01;100.00;64805.59;4993384;28;20044;-61
2021/08/16 10:00:32;;;;;;;13.90;3.30;;;;;;;-145.01;100.00;64805.59;4992843;28;20038;-59
2021/08/16 10:02:57;;;;;;;7.28;3.08;;;;;;;-145.01;100.00;64805.59;4992026;28;20110;-59
2021/08/16 10:05:22;;;;;;;12.65;3.10;;;;;;;-145.01;100.00;64805.59;4991718;28;20045;-59
2021/08/16 10:07:48;;;;;;;13.02;3.35;;;;;;;-145.01;100.00;64805.59;4991937;28;20380;-59
2021/08/16 10:10:13;;;;;;;11.70;3.53;;;;;;;-145.01;100.00;64805.59;4992556;28;20046;-59
2021/08/16 10:12:39;;;;;;;12.25;3.10;;;;;;;-145.01;100.00;64805.59;4975479;28;20057;-60
2021/08/16 10:15:04;;;;;;;13.02;3.15;;;;;;;-145.01;100.00;64805.59;4975355;28;20019;-61
2021/08/16 10:17:36;;;;;;;13.70;3.30;;;;;;;-145.01;100.00;64805.59;4991713;28;20053;-59
2021/08/16 10:20:02;;;;;;;9.20;3.40;;;;;;;-145.01;100.00;64805.59;4992367;28;20037;-59
2021/08/16 10:22:33;;;;;;;8.45;2.88;;;;;;;-145.01;100.00;64805.59;4993072;28;20019;-59
2021/08/16 10:25:08;;;;;;;10.32;3.17;;;;;;;-145.01;100.00;64805.59;4976394;28;20515;-59
2021/08/16 10:27:33;;;;;;;9.50;3.10;;;;;;;-145.01;100.00;64805.59;4991575;28;20519;-59
2021/08/16 10:30:04;;;;;;;9.45;2.80;;;;;;;-145.01;100.00;64805.59;4993082;28;20048;-59
2021/08/16 10:32:30;;;;;;;10.98;2.88;;;;;;;-145.01;100.00;64805.59;4992612;28;20050;-59
2021/08/16 10:35:09;;;;;;;7.78;2.88;;;;;;;-145.01;100.00;64805.59;4993408;28;20469;-61
2021/08/16 10:37:36;;;;;;;10.45;2.85;;;;;;;-145.01;100.00;64805.59;4995878;28;20162;-61
2021/08/16 10:40:12;;;;;;;11.68;2.92;;;;;;;-145.01;100.00;64805.59;4996408;28;20034;-59
2021/08/16 10:42:37;;;;;;;6.75;2.97;;;;;;;-145.01;100.00;64805.59;4995724;28;20072;-59
2021/08/16 10:45:03;;;;;;;7.03;2.95;;;;;;;-145.01;100.00;64805.59;4996286;28;20420;-59
2021/08/16 10:47:33;;;;;;;10.57;2.85;;;;;;;-145.01;100.00;64805.59;4996675;28;20428;-59
2021/08/16 10:50:07;;;;;;;6.78;2.50;;;;;;;-145.01;100.00;64805.59;4996880;28;20057;-61
2021/08/16 10:52:33;;;;;;;8.98;2.88;;;;;;;-145.01;100.00;64805.59;4996310;28;20108;-59
2021/08/16 10:55:14;;;;;;;5.80;2.72;;;;;;;-145.01;100.00;64805.59;4996487;28;20061;-59
2021/08/16 10:57:40;;;;;;;6.53;2.60;;;;;;;-145.01;100.00;64805.59;4996223;28;20441;-62
2021/08/16 11:00:07;;;;;;;10.27;2.90;;;;;;;-145.01;100.00;64805.59;4994629;28;20058;-59
2021/08/16 11:02:33;;;;;;;9.43;2.85;;;;;;;-145.01;100.00;64805.59;4996570;28;20038;-59